createdAt,value
2018-02-14T05:33:03.993Z,17.56
2018-02-14T05:34:12.936Z,17.54
2018-02-14T05:35:21.613Z,17.54
2018-02-14T05:36:30.298Z,17.56
2018-02-14T05:37:38.983Z,17.52
2018-02-14T05:38:47.935Z,17.56
2018-02-14T05:39:56.885Z,17.58
2018-02-14T05:41:05.831Z,17.59
2018-02-14T05:42:15.049Z,17.62
2018-02-14T05:43:24.273Z,17.66
2018-02-14T05:44:33.043Z,17.78
2018-02-14T05:45:41.996Z,17.7
2018-02-14T05:46:50.683Z,17.86
2018-02-14T05:47:59.632Z,17.89
2018-02-14T05:49:08.871Z,17.89
2018-02-14T05:50:17.858Z,17.86
2018-02-14T05:51:27.079Z,17.9
2018-02-14T05:52:35.772Z,17.95
2018-02-14T05:53:44.729Z,17.99
2018-02-14T05:54:53.954Z,18.1
2018-02-14T05:56:02.643Z,18.02
2018-02-14T05:57:11.336Z,18.03
2018-02-14T05:58:20.561Z,18.17
2018-02-14T05:59:29.250Z,18.18
2018-02-14T06:00:38.472Z,18.2
2018-02-14T06:01:47.428Z,18.33
2018-02-14T06:02:56.113Z,18.37
2018-02-14T06:04:05.076Z,18.41
2018-02-14T06:05:13.763Z,18.37
2018-02-14T06:06:22.718Z,18.44
2018-02-14T06:07:31.677Z,18.54
2018-02-14T06:08:40.906Z,18.55
2018-02-14T06:09:49.590Z,18.54
2018-02-14T06:10:58.277Z,18.52
2018-02-14T06:12:07.498Z,18.37
2018-02-14T06:13:16.185Z,18.35
2018-02-14T06:14:25.408Z,18.37
2018-02-14T06:15:34.633Z,18.26
2018-02-14T06:16:43.589Z,18.35
2018-02-14T06:17:52.544Z,18.3
2018-02-14T06:19:01.234Z,18.29
2018-02-14T06:20:10.188Z,18.35
2018-02-14T06:21:19.411Z,18.41
2018-02-14T06:22:28.101Z,18.45
2018-02-14T06:23:36.787Z,18.44
2018-02-14T06:24:45.477Z,18.54
2018-02-14T06:25:54.163Z,18.52
2018-02-14T06:27:02.851Z,18.48
2018-02-14T06:28:11.544Z,18.63
2018-02-14T06:29:20.228Z,18.57
2018-02-14T06:30:29.184Z,18.63
2018-02-14T06:31:37.873Z,18.63
2018-02-14T06:32:46.564Z,18.67
2018-02-14T06:33:55.250Z,18.7
2018-02-14T06:35:04.474Z,18.76
2018-02-14T06:36:13.965Z,18.81
2018-02-14T06:37:22.921Z,18.81
2018-02-14T06:38:31.876Z,18.85
2018-02-14T06:39:40.568Z,18.82
2018-02-14T06:40:50.062Z,18.87
2018-02-14T06:41:59.276Z,18.87
2018-02-14T06:43:08.231Z,18.92
2018-02-14T06:44:17.460Z,18.9
2018-02-14T06:45:26.413Z,18.9
2018-02-14T06:46:35.637Z,18.92
2018-02-14T06:47:44.591Z,18.91
2018-02-14T06:48:53.545Z,18.98
2018-02-14T06:50:03.037Z,18.98
2018-02-14T06:51:12.001Z,18.95
2018-02-14T06:52:21.498Z,18.95
2018-02-14T06:53:30.981Z,19.02
2018-02-14T06:54:39.936Z,19.06
2018-02-14T06:55:48.623Z,19.06
2018-02-14T06:56:57.579Z,18.95
2018-02-14T06:58:06.798Z,18.98
2018-02-14T06:59:15.750Z,18.99
2018-02-14T07:00:24.436Z,19
2018-02-14T07:01:33.123Z,18.98
2018-02-14T07:02:42.346Z,19
2018-02-14T07:03:51.301Z,19.02
2018-02-14T07:04:59.994Z,19.1
2018-02-14T07:06:08.682Z,19.06
2018-02-14T07:07:17.903Z,19.04
2018-02-14T07:08:26.858Z,18.99
2018-02-14T07:09:35.815Z,19.16
2018-02-14T07:10:44.772Z,19.06
2018-02-14T07:11:54.053Z,19.02
2018-02-14T07:13:03.276Z,19.06
2018-02-14T07:14:12.227Z,19.1
2018-02-14T07:15:20.916Z,19.04
2018-02-14T07:16:29.872Z,19.07
2018-02-14T07:17:38.559Z,19.13
2018-02-14T07:18:47.252Z,18.98
2018-02-14T07:19:56.204Z,19.11
2018-02-14T07:21:05.440Z,19.02
2018-02-14T07:22:14.398Z,19.08
2018-02-14T07:23:23.621Z,19.13
2018-02-14T07:24:32.308Z,19.07
2018-02-14T07:25:41.004Z,19.11
2018-02-14T07:26:49.964Z,19.14
2018-02-14T07:27:58.652Z,19.13
2018-02-14T07:29:07.631Z,19.21
2018-02-14T07:30:16.304Z,19.18
2018-02-14T07:31:25.257Z,19.13
2018-02-14T07:32:34.214Z,19.11
2018-02-14T07:33:42.900Z,19.13
2018-02-14T07:34:51.856Z,19.13
2018-02-14T07:36:00.546Z,19.22
2018-02-14T07:37:09.497Z,19.07
2018-02-14T07:38:18.462Z,19.1
2018-02-14T07:39:27.679Z,19.1
2018-02-14T07:40:36.372Z,19.1
2018-02-14T07:41:45.060Z,19.07
2018-02-14T07:42:54.013Z,19.1
2018-02-14T07:44:02.970Z,19.11
2018-02-14T07:45:11.931Z,19.14
2018-02-14T07:46:20.882Z,19.19
2018-02-14T07:47:29.569Z,19.19
2018-02-14T07:48:38.528Z,19.16
2018-02-14T07:49:47.497Z,19.18
2018-02-14T07:50:56.723Z,19.1
2018-02-14T07:52:05.950Z,19.1
2018-02-14T07:53:14.904Z,19.1
2018-02-14T07:54:23.590Z,19.18
2018-02-14T07:55:32.274Z,19.11
2018-02-14T07:56:41.232Z,19.14
2018-02-14T07:57:50.455Z,19.16
2018-02-14T07:58:59.413Z,19.16
2018-02-14T08:00:08.101Z,19.11
2018-02-14T08:01:17.054Z,19.16
2018-02-14T08:02:26.276Z,19.22
2018-02-14T08:03:35.498Z,19.18
2018-02-14T08:04:44.458Z,19.26
2018-02-14T08:05:53.142Z,19.14
2018-02-14T08:07:02.098Z,19.21
2018-02-14T08:08:11.058Z,19.13
2018-02-14T08:09:19.749Z,19.14
2018-02-14T08:10:28.971Z,19.1
2018-02-14T08:11:37.928Z,19.13
2018-02-14T08:12:46.888Z,19.16
2018-02-14T08:13:55.579Z,19.07
2018-02-14T08:15:04.267Z,19.14
2018-02-14T08:16:13.228Z,19.1
2018-02-14T08:17:22.449Z,19.1
2018-02-14T08:18:31.144Z,19.11
2018-02-14T08:19:40.101Z,19.14
2018-02-14T08:20:49.093Z,19.13
2018-02-14T08:21:58.384Z,19.11
2018-02-14T08:23:07.337Z,19.18
2018-02-14T08:24:16.294Z,19.19
2018-02-14T08:25:25.247Z,19.23
2018-02-14T08:26:33.938Z,19.16
2018-02-14T08:27:42.627Z,19.13
2018-02-14T08:28:51.317Z,19.13
2018-02-14T08:30:00.013Z,19.1
2018-02-14T08:31:08.973Z,19.16
2018-02-14T08:32:18.200Z,19.19
2018-02-14T08:33:27.160Z,19.14
2018-02-14T08:34:35.849Z,19.25
2018-02-14T08:35:44.540Z,19.22
2018-02-14T08:36:53.229Z,19.21
2018-02-14T08:38:02.183Z,19.13
2018-02-14T08:39:10.872Z,19.23
2018-02-14T08:40:19.558Z,19.21
2018-02-14T08:41:28.518Z,19.23
2018-02-14T08:42:37.206Z,19.25
2018-02-14T08:43:45.904Z,19.26
2018-02-14T08:44:55.128Z,19.21
2018-02-14T08:46:04.350Z,19.19
2018-02-14T08:47:13.038Z,19.25
2018-02-14T08:48:21.727Z,19.26
2018-02-14T08:49:30.419Z,19.28
2018-02-14T08:50:39.111Z,19.25
2018-02-14T08:51:48.066Z,19.29
2018-02-14T08:52:57.291Z,19.29
2018-02-14T08:54:05.984Z,19.23
2018-02-14T08:55:14.676Z,19.22
2018-02-14T08:56:23.629Z,19.26
2018-02-14T08:57:32.852Z,19.21
2018-02-14T08:58:42.074Z,19.23
2018-02-14T08:59:51.030Z,19.21
2018-02-14T09:00:59.720Z,19.28
2018-02-14T09:02:08.683Z,19.21
2018-02-14T09:03:17.636Z,19.26
2018-02-14T09:04:26.591Z,19.28
2018-02-14T09:05:35.819Z,19.23
2018-02-14T09:06:44.774Z,19.21
2018-02-14T09:07:53.730Z,19.29
2018-02-14T09:09:02.431Z,19.26
2018-02-14T09:10:11.373Z,19.22
2018-02-14T09:11:20.061Z,19.28
2018-02-14T09:12:29.018Z,19.22
2018-02-14T09:13:38.247Z,19.26
2018-02-14T09:14:46.933Z,19.29
2018-02-14T09:15:55.963Z,19.21
2018-02-14T09:17:04.649Z,19.28
2018-02-14T09:18:13.870Z,19.31
2018-02-14T09:19:22.558Z,19.25
2018-02-14T09:20:31.518Z,19.28
2018-02-14T09:21:40.732Z,19.28
2018-02-14T09:22:49.693Z,19.25
2018-02-14T09:23:58.381Z,19.32
2018-02-14T09:25:07.344Z,19.32
2018-02-14T09:26:16.300Z,19.36
2018-02-14T09:27:25.255Z,19.32
2018-02-14T09:28:33.945Z,19.31
2018-02-14T09:29:42.633Z,19.31
2018-02-14T09:30:51.321Z,19.36
2018-02-14T09:32:00.546Z,19.33
2018-02-14T09:33:09.764Z,19.44
2018-02-14T09:34:18.717Z,19.43
2018-02-14T09:35:27.672Z,19.37
2018-02-14T09:36:36.625Z,19.37
2018-02-14T09:37:45.586Z,19.33
2018-02-14T09:38:54.270Z,19.33
2018-02-14T09:40:03.489Z,19.29
2018-02-14T09:41:12.441Z,19.31
2018-02-14T09:42:21.133Z,19.28
2018-02-14T09:43:30.107Z,19.33
2018-02-14T09:44:39.344Z,19.33
2018-02-14T09:45:48.300Z,19.28
2018-02-14T09:46:57.255Z,19.29
2018-02-14T09:48:06.210Z,19.28
2018-02-14T09:49:14.901Z,19.36
2018-02-14T09:50:24.123Z,19.28
2018-02-14T09:51:33.076Z,19.33
2018-02-14T09:52:41.767Z,19.26
2018-02-14T09:53:51.255Z,19.32
2018-02-14T09:54:59.944Z,19.32
2018-02-14T09:56:08.630Z,19.36
2018-02-14T09:57:17.582Z,19.28
2018-02-14T09:58:26.540Z,19.33
2018-02-14T09:59:35.236Z,19.28
2018-02-14T10:00:44.193Z,19.32
2018-02-14T10:01:53.152Z,19.32
2018-02-14T10:03:02.107Z,19.28
2018-02-14T10:04:11.323Z,19.32
2018-02-14T10:05:20.013Z,19.25
2018-02-14T10:06:28.774Z,19.28
2018-02-14T10:07:37.464Z,19.28
2018-02-14T10:08:46.421Z,19.29
2018-02-14T10:09:55.641Z,19.29
2018-02-14T10:11:04.596Z,19.28
2018-02-14T10:12:13.285Z,19.23
2018-02-14T10:13:21.974Z,19.28
2018-02-14T10:14:30.663Z,19.22
2018-02-14T10:15:39.616Z,19.25
2018-02-14T10:16:48.573Z,19.31
2018-02-14T10:17:57.793Z,19.25
2018-02-14T10:19:06.748Z,19.29
2018-02-14T10:20:15.436Z,19.28
2018-02-14T10:21:24.127Z,19.21
2018-02-14T10:22:32.815Z,19.31
2018-02-14T10:23:41.504Z,19.28
2018-02-14T10:24:50.197Z,19.33
2018-02-14T10:25:59.154Z,19.31
2018-02-14T10:27:07.843Z,19.28
2018-02-14T10:28:16.807Z,19.28
2018-02-14T10:29:25.761Z,19.33
2018-02-14T10:30:34.985Z,19.36
2018-02-14T10:31:43.676Z,19.37
2018-02-14T10:32:52.637Z,19.36
2018-02-14T10:34:01.860Z,19.29
2018-02-14T10:35:11.080Z,19.29
2018-02-14T10:36:20.035Z,19.28
2018-02-14T10:37:28.991Z,19.33
2018-02-14T10:38:37.979Z,19.37
2018-02-14T10:39:46.933Z,19.4
2018-02-14T10:40:55.619Z,19.44
2018-02-14T10:42:04.847Z,19.41
2018-02-14T10:43:13.534Z,19.48
2018-02-14T10:44:22.222Z,19.55
2018-02-14T10:45:31.178Z,19.51
2018-02-14T10:46:40.131Z,19.58
2018-02-14T10:47:49.116Z,19.55
2018-02-14T10:48:58.146Z,19.55
2018-02-14T10:50:07.105Z,19.58
2018-02-14T10:51:16.331Z,19.61
2018-02-14T10:52:25.019Z,19.68
2018-02-14T10:53:33.707Z,19.54
2018-02-14T10:54:42.470Z,19.71
2018-02-14T10:55:51.427Z,19.68
2018-02-14T10:57:00.111Z,19.73
2018-02-14T10:58:08.799Z,19.78
2018-02-14T10:59:17.764Z,19.78
2018-02-14T11:00:26.449Z,19.71
2018-02-14T11:01:35.139Z,19.83
2018-02-14T11:02:43.825Z,19.86
2018-02-14T11:03:52.515Z,19.71
2018-02-14T11:05:01.471Z,19.76
2018-02-14T11:06:10.499Z,19.86
2018-02-14T11:07:19.475Z,19.84
2018-02-14T11:08:28.146Z,19.78
2018-02-14T11:09:36.834Z,19.87
2018-02-14T11:10:45.790Z,19.86
2018-02-14T11:11:55.011Z,19.83
2018-02-14T11:13:03.969Z,19.84
2018-02-14T11:14:13.187Z,19.84
2018-02-14T11:15:21.877Z,19.98
2018-02-14T11:16:30.827Z,19.96
2018-02-14T11:17:40.312Z,19.91
2018-02-14T11:18:49.004Z,19.99
2018-02-14T11:19:57.690Z,20.02
2018-02-14T11:21:06.381Z,19.92
2018-02-14T11:22:15.067Z,19.99
2018-02-14T11:23:24.313Z,19.94
2018-02-14T11:24:33.269Z,20.01
2018-02-14T11:25:41.959Z,19.95
2018-02-14T11:26:50.650Z,20.01
2018-02-14T11:27:59.601Z,20.08
2018-02-14T11:29:08.561Z,20.02
2018-02-14T11:30:17.252Z,20.01
2018-02-14T11:31:25.943Z,20.08
2018-02-14T11:32:34.895Z,19.99
2018-02-14T11:33:43.852Z,19.99
2018-02-14T11:34:52.803Z,19.98
2018-02-14T11:36:01.637Z,20.02
2018-02-14T11:37:10.882Z,19.94
2018-02-14T11:38:19.837Z,19.99
2018-02-14T11:39:28.796Z,19.96
2018-02-14T11:40:37.751Z,19.98
2018-02-14T11:41:46.707Z,20.1
2018-02-14T11:42:55.738Z,19.94
2018-02-14T11:44:04.694Z,20.11
2018-02-14T11:45:13.645Z,20.11
2018-02-14T11:46:22.335Z,20.1
2018-02-14T11:47:31.023Z,20.02
2018-02-14T11:48:39.716Z,20.08
2018-02-14T11:49:48.675Z,20.08
2018-02-14T11:50:57.366Z,20.05
2018-02-14T11:52:06.591Z,20.1
2018-02-14T11:53:15.545Z,20.13
2018-02-14T11:54:24.500Z,20.17
2018-02-14T11:55:33.773Z,20.17
2018-02-14T11:56:42.733Z,20.06
2018-02-14T11:57:51.693Z,20.08
2018-02-14T11:59:00.379Z,20.17
2018-02-14T12:00:09.337Z,20.17
2018-02-14T12:01:18.024Z,20.1
2018-02-14T12:02:27.246Z,20.17
2018-02-14T12:03:35.932Z,20.16
2018-02-14T12:04:44.889Z,20.08
2018-02-14T12:05:53.577Z,20.14
2018-02-14T12:07:02.803Z,20.14
2018-02-14T12:08:11.766Z,20.2
2018-02-14T12:09:20.991Z,20.16
2018-02-14T12:10:31.144Z,20.17
2018-02-14T12:11:40.102Z,20.2
2018-02-14T12:12:48.793Z,20.14
2018-02-14T12:13:57.757Z,20.1
2018-02-14T12:15:06.714Z,20.11
2018-02-14T12:16:15.401Z,20.24
2018-02-14T12:17:24.624Z,20.17
2018-02-14T12:18:33.848Z,20.21
2018-02-14T12:19:42.801Z,20.31
2018-02-14T12:20:51.489Z,20.28
2018-02-14T12:22:00.445Z,20.23
2018-02-14T12:23:09.394Z,20.23
2018-02-14T12:24:18.077Z,20.26
2018-02-14T12:25:26.769Z,20.23
2018-02-14T12:26:35.722Z,20.29
2018-02-14T12:27:44.409Z,20.28
2018-02-14T12:28:53.103Z,20.31
2018-02-14T12:30:02.057Z,20.28
2018-02-14T12:31:11.544Z,20.28
2018-02-14T12:32:20.499Z,20.33
2018-02-14T12:33:29.461Z,20.28
2018-02-14T12:34:38.423Z,20.33
2018-02-14T12:35:47.112Z,20.28
2018-02-14T12:36:56.332Z,20.28
2018-02-14T12:38:05.290Z,20.24
2018-02-14T12:39:13.991Z,20.29
2018-02-14T12:40:23.212Z,20.21
2018-02-14T12:41:32.445Z,20.28
2018-02-14T12:42:41.404Z,20.32
2018-02-14T12:43:50.090Z,20.28
2018-02-14T12:44:59.051Z,20.23
2018-02-14T12:46:07.738Z,20.23
2018-02-14T12:47:16.961Z,20.21
2018-02-14T12:48:26.187Z,20.21
2018-02-14T12:49:34.879Z,20.32
2018-02-14T12:50:43.568Z,20.26
2018-02-14T12:51:52.530Z,20.28
2018-02-14T12:53:01.222Z,20.24
2018-02-14T12:54:10.185Z,20.23
2018-02-14T12:55:18.876Z,20.23
2018-02-14T12:56:27.569Z,20.16
2018-02-14T12:57:36.522Z,20.14
2018-02-14T12:58:45.208Z,20.1
2018-02-14T12:59:53.896Z,20.11
2018-02-14T13:01:02.849Z,20.17
2018-02-14T13:02:12.359Z,20.18
2018-02-14T13:03:21.046Z,20.14
2018-02-14T13:04:29.736Z,20.13
2018-02-14T13:05:38.427Z,20.18
2018-02-14T13:06:47.380Z,20.16
2018-02-14T13:07:56.069Z,20.17
2018-02-14T13:09:05.287Z,20.18
2018-02-14T13:10:14.247Z,20.13
2018-02-14T13:11:22.934Z,20.17
2018-02-14T13:12:31.623Z,20.18
2018-02-14T13:13:40.582Z,20.11
2018-02-14T13:14:49.811Z,20.16
2018-02-14T13:15:58.767Z,20.14
2018-02-14T13:17:07.724Z,20.2
2018-02-14T13:18:17.215Z,20.11
2018-02-14T13:19:26.174Z,20.14
2018-02-14T13:20:35.130Z,20.06
2018-02-14T13:21:44.088Z,20.1
2018-02-14T13:22:53.048Z,20.17
2018-02-14T13:24:02.272Z,20.14
2018-02-14T13:25:10.967Z,20.17
2018-02-14T13:26:19.926Z,20.16
2018-02-14T13:27:28.615Z,20.08
2018-02-14T13:28:37.846Z,20.11
2018-02-14T13:29:47.074Z,20.11
2018-02-14T13:30:56.039Z,20.11
2018-02-14T13:32:05.261Z,20.1
2018-02-14T13:33:14.480Z,20.11
2018-02-14T13:34:23.438Z,20.11
2018-02-14T13:35:32.659Z,20.06
2018-02-14T13:36:41.613Z,20.11
2018-02-14T13:37:50.832Z,20.05
2018-02-14T13:38:59.518Z,20.02
2018-02-14T13:40:08.206Z,20.13
2018-02-14T13:41:17.697Z,20.06
2018-02-14T13:42:26.654Z,20.02
2018-02-14T13:43:35.878Z,20.1
2018-02-14T13:44:45.109Z,20.02
2018-02-14T13:45:54.063Z,20.06
2018-02-14T13:47:03.016Z,20.1
2018-02-14T13:48:11.966Z,20.03
2018-02-14T13:49:20.918Z,20.08
2018-02-14T13:50:29.608Z,20.11
2018-02-14T13:51:38.836Z,20.13
2018-02-14T13:52:47.526Z,20.08
2018-02-14T13:53:56.218Z,19.98
2018-02-14T13:55:04.907Z,20.03
2018-02-14T13:56:14.136Z,19.96
2018-02-14T13:57:23.093Z,19.96
2018-02-14T13:58:31.781Z,19.99
2018-02-14T13:59:40.737Z,20.01
2018-02-14T14:00:49.425Z,19.94
2018-02-14T14:01:58.642Z,20.01
2018-02-14T14:03:07.865Z,20.03
2018-02-14T14:04:16.554Z,20.06
2018-02-14T14:05:25.774Z,19.94
2018-02-14T14:06:34.990Z,20.01
2018-02-14T14:07:44.212Z,19.94
2018-02-14T14:08:52.899Z,20.06
2018-02-14T14:10:01.590Z,20.05
2018-02-14T14:11:10.548Z,20.08
2018-02-14T14:12:19.238Z,20.02
2018-02-14T14:13:28.192Z,20.06
2018-02-14T14:14:37.148Z,19.94
2018-02-14T14:15:45.837Z,19.95
2018-02-14T14:16:54.531Z,20.03
2018-02-14T14:18:03.219Z,19.87
2018-02-14T14:19:11.909Z,20.03
2018-02-14T14:20:20.603Z,20.05
2018-02-14T14:21:30.094Z,19.91
2018-02-14T14:22:39.167Z,19.98
2018-02-14T14:23:48.079Z,19.99
2018-02-14T14:24:57.034Z,19.92
2018-02-14T14:26:05.723Z,19.98
2018-02-14T14:27:15.219Z,19.99
2018-02-14T14:28:23.905Z,19.95
2018-02-14T14:29:32.599Z,19.99
2018-02-14T14:30:41.557Z,19.95
2018-02-14T14:31:50.784Z,19.91
2018-02-14T14:32:59.741Z,19.98
2018-02-14T14:34:08.696Z,19.98
2018-02-14T14:35:17.385Z,19.96
2018-02-14T14:36:26.077Z,19.94
2018-02-14T14:37:35.073Z,19.96
2018-02-14T14:38:43.762Z,19.78
2018-02-14T14:39:52.447Z,19.98
2018-02-14T14:41:01.405Z,19.91
2018-02-14T14:42:10.682Z,19.91
2018-02-14T14:43:19.622Z,19.94
2018-02-14T14:44:28.593Z,19.99
2018-02-14T14:45:37.823Z,19.87
2018-02-14T14:46:47.040Z,19.95
2018-02-14T14:47:55.731Z,19.99
2018-02-14T14:49:04.957Z,19.88
2018-02-14T14:50:13.646Z,19.98
2018-02-14T14:51:22.703Z,19.91
2018-02-14T14:52:31.660Z,19.86
2018-02-14T14:53:40.885Z,19.84
2018-02-14T14:54:49.842Z,19.95
2018-02-14T14:55:58.796Z,19.95
2018-02-14T14:57:08.014Z,19.96
2018-02-14T14:58:16.970Z,19.8
2018-02-14T14:59:25.659Z,19.87
2018-02-14T15:00:34.622Z,19.84
2018-02-14T15:01:43.306Z,19.86
2018-02-14T15:02:51.996Z,19.87
2018-02-14T15:04:00.686Z,19.87
2018-02-14T15:05:09.908Z,19.84
2018-02-14T15:06:18.862Z,19.83
2018-02-14T15:07:27.551Z,19.83
2018-02-14T15:08:36.243Z,19.81
2018-02-14T15:09:44.931Z,19.84
2018-02-14T15:10:53.617Z,19.84
2018-02-14T15:12:02.837Z,19.86
2018-02-14T15:13:11.792Z,19.83
2018-02-14T15:14:20.481Z,19.71
2018-02-14T15:15:29.172Z,19.77
2018-02-14T15:16:38.129Z,19.84
2018-02-14T15:17:47.095Z,19.78
2018-02-14T15:18:55.788Z,19.78
2018-02-14T15:20:04.746Z,19.73
2018-02-14T15:21:13.705Z,19.77
2018-02-14T15:22:22.927Z,19.74
2018-02-14T15:23:31.886Z,19.81
2018-02-14T15:24:40.848Z,19.77
2018-02-14T15:25:49.801Z,19.73
2018-02-14T15:26:58.760Z,19.76
2018-02-14T15:28:07.985Z,19.71
2018-02-14T15:29:16.974Z,19.69
2018-02-14T15:30:25.934Z,19.77
2018-02-14T15:31:34.884Z,19.81
2018-02-14T15:32:43.570Z,19.88
2018-02-14T15:33:52.254Z,19.84
2018-02-14T15:35:00.948Z,19.73
2018-02-14T15:36:09.900Z,19.88
2018-02-14T15:37:18.857Z,19.8
2018-02-14T15:38:28.344Z,19.8
2018-02-14T15:39:37.032Z,19.84
2018-02-14T15:40:45.722Z,19.81
2018-02-14T15:41:54.411Z,19.91
2018-02-14T15:43:03.100Z,19.8
2018-02-14T15:44:12.314Z,19.87
2018-02-14T15:45:21.002Z,19.78
2018-02-14T15:46:30.226Z,19.81
2018-02-14T15:47:39.182Z,19.84
2018-02-14T15:48:48.137Z,19.77
2018-02-14T15:49:57.364Z,19.58
2018-02-14T15:51:06.053Z,19.58
2018-02-14T15:52:15.275Z,19.48
2018-02-14T15:53:23.962Z,19.5
2018-02-14T15:54:32.650Z,19.46
2018-02-14T15:55:41.876Z,19.5
2018-02-14T15:56:51.104Z,19.56
2018-02-14T15:58:00.063Z,19.51
2018-02-14T15:59:08.756Z,19.56
2018-02-14T16:00:17.790Z,19.69
2018-02-14T16:01:26.751Z,19.73
2018-02-14T16:02:35.984Z,19.61
2018-02-14T16:03:45.204Z,19.69
2018-02-14T16:04:53.892Z,19.73
2018-02-14T16:06:02.849Z,19.62
2018-02-14T16:07:11.804Z,19.73
2018-02-14T16:08:20.760Z,19.76
2018-02-14T16:09:29.712Z,19.73
2018-02-14T16:10:38.671Z,19.69
2018-02-14T16:11:47.358Z,19.71
2018-02-14T16:12:56.050Z,19.74
2018-02-14T16:14:04.739Z,19.71
2018-02-14T16:15:13.958Z,19.68
2018-02-14T16:16:22.914Z,19.74
2018-02-14T16:17:31.873Z,19.73
2018-02-14T16:18:41.094Z,19.71
2018-02-14T16:19:50.057Z,19.78
2018-02-14T16:20:58.762Z,19.73
2018-02-14T16:22:07.453Z,19.71
2018-02-14T16:23:16.149Z,19.81
2018-02-14T16:24:24.844Z,19.73
2018-02-14T16:25:33.539Z,19.83
2018-02-14T16:26:42.492Z,19.78
2018-02-14T16:27:51.712Z,19.87
2018-02-14T16:29:00.402Z,19.8
2018-02-14T16:30:09.633Z,19.92
2018-02-14T16:31:18.856Z,19.8
2018-02-14T16:32:28.083Z,19.87
2018-02-14T16:33:36.771Z,19.83
2018-02-14T16:34:45.724Z,19.91
2018-02-14T16:35:54.672Z,19.91
2018-02-14T16:37:03.887Z,19.96
2018-02-14T16:38:13.373Z,19.95
2018-02-14T16:39:22.055Z,19.91
2018-02-14T16:40:31.009Z,19.81
2018-02-14T16:41:39.961Z,19.83
2018-02-14T16:42:49.451Z,19.8
2018-02-14T16:43:58.413Z,19.91
2018-02-14T16:45:07.633Z,19.87
2018-02-14T16:46:16.330Z,19.81
2018-02-14T16:47:25.816Z,19.81
2018-02-14T16:48:34.615Z,19.77
2018-02-14T16:49:43.724Z,19.83
2018-02-14T16:50:52.595Z,19.8
2018-02-14T16:52:01.551Z,19.84
2018-02-14T16:53:10.515Z,19.81
2018-02-14T16:54:19.468Z,19.94
2018-02-14T16:55:28.158Z,19.84
2018-02-14T16:56:37.115Z,19.84
2018-02-14T16:57:46.073Z,19.84
2018-02-14T16:58:55.032Z,19.81
2018-02-14T17:00:03.991Z,19.84
2018-02-14T17:01:12.681Z,19.87
2018-02-14T17:02:21.371Z,19.84
2018-02-14T17:03:30.060Z,19.8
2018-02-14T17:04:38.750Z,19.87
2018-02-14T17:05:47.436Z,19.73
2018-02-14T17:06:56.395Z,19.83
2018-02-14T17:08:05.082Z,19.81
2018-02-14T17:09:14.035Z,19.81
2018-02-14T17:10:22.987Z,19.84
2018-02-14T17:11:31.943Z,19.66
2018-02-14T17:12:40.629Z,19.78
2018-02-14T17:13:49.584Z,19.84
2018-02-14T17:14:58.270Z,19.76
2018-02-14T17:16:06.956Z,19.78
2018-02-14T17:17:16.182Z,19.73
2018-02-14T17:18:24.873Z,19.8
2018-02-14T17:19:33.868Z,19.8
2018-02-14T17:20:42.555Z,19.8
2018-02-14T17:21:51.851Z,19.78
2018-02-14T17:23:00.674Z,19.78
2018-02-14T17:24:09.629Z,19.8
2018-02-14T17:25:18.319Z,19.73
2018-02-14T17:26:27.279Z,19.76
2018-02-14T17:27:36.229Z,19.69
2018-02-14T17:28:45.555Z,19.76
2018-02-14T17:29:54.203Z,19.71
2018-02-14T17:31:02.892Z,19.71
2018-02-14T17:32:12.117Z,19.76
2018-02-14T17:33:20.806Z,19.71
2018-02-14T17:34:29.760Z,19.73
2018-02-14T17:35:38.714Z,19.74
2018-02-14T17:36:47.399Z,19.74
2018-02-14T17:37:56.087Z,19.71
2018-02-14T17:39:05.310Z,19.73
2018-02-14T17:40:14.003Z,19.78
2018-02-14T17:41:22.695Z,19.76
2018-02-14T17:42:31.382Z,19.73
2018-02-14T17:43:40.339Z,19.71
2018-02-14T17:44:49.030Z,19.73
2018-02-14T17:45:58.253Z,19.8
2018-02-14T17:47:07.209Z,19.69
2018-02-14T17:48:15.898Z,19.73
2018-02-14T17:49:24.859Z,19.74
2018-02-14T17:50:33.546Z,19.71
2018-02-14T17:51:42.238Z,19.68
2018-02-14T17:52:51.459Z,19.73
2018-02-14T17:54:00.148Z,19.69
2018-02-14T17:55:09.367Z,19.73
2018-02-14T17:56:18.589Z,19.74
2018-02-14T17:57:27.281Z,19.71
2018-02-14T17:58:36.231Z,19.68
2018-02-14T17:59:45.188Z,19.69
2018-02-14T18:00:53.885Z,19.71
2018-02-14T18:02:02.866Z,19.73
2018-02-14T18:03:12.099Z,19.71
2018-02-14T18:04:21.053Z,19.73
2018-02-14T18:05:30.274Z,19.69
2018-02-14T18:06:39.230Z,19.73
2018-02-14T18:07:48.183Z,19.71
2018-02-14T18:08:57.140Z,19.74
2018-02-14T18:10:05.828Z,19.73
2018-02-14T18:11:14.516Z,19.69
2018-02-14T18:12:23.472Z,19.71
2018-02-14T18:13:32.426Z,19.73
2018-02-14T18:14:41.653Z,19.65
2018-02-14T18:15:50.873Z,19.69
2018-02-14T18:16:59.828Z,19.77
2018-02-14T18:18:08.782Z,19.74
2018-02-14T18:19:17.468Z,19.71
2018-02-14T18:20:26.159Z,19.68
2018-02-14T18:21:34.850Z,19.71
2018-02-14T18:22:43.806Z,19.73
2018-02-14T18:23:53.033Z,19.73
2018-02-14T18:25:01.988Z,19.73
2018-02-14T18:26:10.941Z,19.66
2018-02-14T18:27:19.634Z,19.65
2018-02-14T18:28:28.592Z,19.74
2018-02-14T18:29:37.547Z,19.73
2018-02-14T18:30:46.239Z,19.71
2018-02-14T18:31:54.934Z,19.66
2018-02-14T18:33:04.154Z,19.68
2018-02-14T18:34:13.114Z,19.74
2018-02-14T18:35:22.068Z,19.69
2018-02-14T18:36:30.757Z,19.68
2018-02-14T18:37:39.712Z,19.73
2018-02-14T18:38:48.400Z,19.68
2018-02-14T18:39:57.094Z,19.73
2018-02-14T18:41:06.373Z,19.68
2018-02-14T18:42:15.596Z,19.65
2018-02-14T18:43:24.562Z,19.61
2018-02-14T18:44:33.777Z,19.69
2018-02-14T18:45:42.734Z,19.73
2018-02-14T18:46:51.954Z,19.69
2018-02-14T18:48:00.647Z,19.66
2018-02-14T18:49:09.336Z,19.73
2018-02-14T18:50:18.561Z,19.61
2018-02-14T18:51:27.518Z,19.65
2018-02-14T18:52:36.209Z,19.68
2018-02-14T18:53:45.430Z,19.65
2018-02-14T18:54:54.386Z,19.71
2018-02-14T18:56:03.874Z,19.61
2018-02-14T18:57:12.565Z,19.63
2018-02-14T18:58:21.255Z,19.63
2018-02-14T18:59:29.943Z,19.74
2018-02-14T19:00:38.899Z,19.61
2018-02-14T19:01:47.589Z,19.61
2018-02-14T19:02:56.545Z,19.54
2018-02-14T19:04:05.770Z,19.62
2018-02-14T19:05:14.731Z,19.71
2018-02-14T19:06:23.685Z,19.68
2018-02-14T19:07:32.378Z,19.63
2018-02-14T19:08:41.337Z,19.73
2018-02-14T19:09:50.560Z,19.65
2018-02-14T19:10:59.250Z,19.69
2018-02-14T19:12:07.942Z,19.66
2018-02-14T19:13:16.633Z,19.58
2018-02-14T19:14:25.589Z,19.66
2018-02-14T19:15:34.549Z,19.62
2018-02-14T19:16:43.240Z,19.73
2018-02-14T19:17:51.932Z,19.62
2018-02-14T19:19:00.623Z,19.71
2018-02-14T19:20:09.580Z,19.69
2018-02-14T19:21:18.807Z,19.65
2018-02-14T19:22:27.495Z,19.66
2018-02-14T19:23:36.715Z,19.62
2018-02-14T19:24:45.670Z,19.66
2018-02-14T19:25:54.356Z,19.69
2018-02-14T19:27:03.053Z,19.63
2018-02-14T19:28:12.015Z,19.69
2018-02-14T19:29:20.970Z,19.65
2018-02-14T19:30:30.200Z,19.73
2018-02-14T19:31:39.611Z,19.74
2018-02-14T19:32:49.202Z,19.63
2018-02-14T19:33:58.158Z,19.65
2018-02-14T19:35:07.164Z,19.65
2018-02-14T19:36:16.390Z,19.63
2018-02-14T19:37:25.087Z,19.71
2018-02-14T19:38:34.034Z,19.65
2018-02-14T19:39:42.723Z,19.63
2018-02-14T19:40:51.416Z,19.65
2018-02-14T19:42:00.366Z,19.76
2018-02-14T19:43:09.591Z,19.55
2018-02-14T19:44:18.283Z,19.66
2018-02-14T19:45:27.273Z,19.65
2018-02-14T19:46:36.496Z,19.68
2018-02-14T19:47:45.184Z,19.66
2018-02-14T19:48:54.406Z,19.61
2018-02-14T19:50:03.366Z,19.66
2018-02-14T19:51:12.324Z,19.59
2018-02-14T19:52:21.281Z,19.66
2018-02-14T19:53:30.770Z,19.63
2018-02-14T19:54:39.461Z,19.59
2018-02-14T19:55:48.680Z,19.61
2018-02-14T19:56:57.633Z,19.65
2018-02-14T19:58:06.592Z,19.59
2018-02-14T19:59:15.813Z,19.58
2018-02-14T20:00:25.036Z,19.62
2018-02-14T20:01:33.726Z,19.65
2018-02-14T20:02:42.683Z,19.63
2018-02-14T20:03:51.443Z,19.69
2018-02-14T20:05:00.394Z,19.63
2018-02-14T20:06:09.085Z,19.61
2018-02-14T20:07:18.045Z,19.58
2018-02-14T20:08:26.997Z,19.59
2018-02-14T20:09:35.687Z,19.56
2018-02-14T20:10:44.377Z,19.59
2018-02-14T20:11:53.599Z,19.59
2018-02-14T20:13:02.553Z,19.55
2018-02-14T20:14:11.240Z,19.59
2018-02-14T20:15:19.928Z,19.55
2018-02-14T20:16:28.617Z,19.58
2018-02-14T20:17:37.309Z,19.61
2018-02-14T20:18:46.270Z,19.54
2018-02-14T20:19:54.966Z,19.58
2018-02-14T20:21:03.915Z,19.62
2018-02-14T20:22:12.873Z,19.61